Time;durP1;ratioP1;P1;durP2;ratioP2;P2;SDS_P1;SDS_P2;PMS_P1;PMS_P2;Temp;Humidity;BMP_temperature;BMP_pressure;BME280_temperature;BME280_humidity;BME280_pressure;Samples;Min_cycle;Max_cycle;Signal;HPM_P1;HPM_P2
2021/10/19 00:00:41;;;;;;;55.33;37.20;;;;;;;13.73;100.00;102222.69;4960973;28;20031;-73
2021/10/19 00:03:27;;;;;;;56.05;37.33;;;;;;;13.50;100.00;102221.94;4959960;28;20030;-73
2021/10/19 00:06:14;;;;;;;53.72;35.90;;;;;;;13.74;100.00;102220.06;4959889;28;20075;-74
2021/10/19 00:09:00;;;;;;;62.17;41.42;;;;;;;13.78;100.00;102216.50;4932413;29;20472;-73
2021/10/19 00:11:46;;;;;;;64.03;43.33;;;;;;;14.03;100.00;102207.53;4959078;29;20031;-73
2021/10/19 00:14:31;;;;;;;68.45;45.45;;;;;;;13.98;100.00;102214.59;4960408;28;20062;-73
2021/10/19 00:17:18;;;;;;;69.07;47.72;;;;;;;13.67;100.00;102218.34;4959706;28;20454;-72
2021/10/19 00:20:05;;;;;;;71.40;47.65;;;;;;;13.98;100.00;102219.00;4959199;28;20097;-73
2021/10/19 00:22:50;;;;;;;62.13;42.30;;;;;;;13.93;100.00;102226.94;4960556;28;20026;-73
2021/10/19 00:25:36;;;;;;;57.15;40.60;;;;;;;13.77;100.00;102217.41;4931759;29;20090;-74
2021/10/19 00:28:22;;;;;;;60.00;40.70;;;;;;;13.80;100.00;102220.03;4960604;28;20023;-73
2021/10/19 00:31:08;;;;;;;63.75;43.53;;;;;;;13.75;100.00;102221.78;4957816;29;20023;-73
2021/10/19 00:33:53;;;;;;;54.22;37.17;;;;;;;13.74;100.00;102227.94;4960069;28;20110;-73
2021/10/19 00:36:39;;;;;;;58.45;39.20;;;;;;;13.86;100.00;102222.59;4958508;29;20027;-74
2021/10/19 00:39:25;;;;;;;54.70;36.08;;;;;;;14.02;100.00;102228.63;4959832;28;20031;-73
2021/10/19 00:42:11;;;;;;;50.53;33.92;;;;;;;13.73;100.00;102234.13;4959943;28;20055;-72
2021/10/19 00:44:56;;;;;;;49.00;33.78;;;;;;;13.97;100.00;102230.44;4959810;28;20065;-73
2021/10/19 00:47:51;;;;;;;54.30;35.92;;;;;;;14.08;100.00;102218.06;4959558;28;20539;-73
2021/10/19 00:50:37;;;;;;;53.50;35.25;;;;;;;13.88;100.00;102222.59;4959023;28;20065;-73
2021/10/19 00:53:23;;;;;;;51.55;35.03;;;;;;;13.91;100.00;102220.81;4959355;28;20027;-73
2021/10/19 00:56:10;;;;;;;49.42;34.15;;;;;;;14.00;100.00;102220.75;4959434;28;20062;-73
2021/10/19 00:58:55;;;;;;;47.28;32.10;;;;;;;13.87;100.00;102229.63;4958269;29;20019;-73
2021/10/19 01:01:41;;;;;;;51.50;33.15;;;;;;;13.80;100.00;102227.94;4959720;28;20031;-73
2021/10/19 01:04:27;;;;;;;48.03;31.83;;;;;;;13.88;100.00;102220.84;4945073;28;20058;-73
2021/10/19 01:07:14;;;;;;;47.47;33.15;;;;;;;13.68;100.00;102230.63;4959604;28;20038;-73
2021/10/19 01:10:05;;;;;;;47.65;32.55;;;;;;;13.27;100.00;102222.06;4959428;28;20079;-73
2021/10/19 01:12:51;;;;;;;51.25;34.15;;;;;;;13.75;100.00;102218.31;4946391;28;20106;-74
2021/10/19 01:15:37;;;;;;;45.20;30.85;;;;;;;13.72;100.00;102228.84;4958241;28;20034;-73
2021/10/19 01:18:22;;;;;;;47.17;31.45;;;;;;;13.91;100.00;102227.84;4957657;29;20031;-72
2021/10/19 01:21:09;;;;;;;46.63;30.48;;;;;;;13.62;100.00;102225.41;4958487;28;20035;-73
2021/10/19 01:23:55;;;;;;;44.38;28.60;;;;;;;13.78;100.00;102224.41;4960025;28;20023;-73
2021/10/19 01:26:40;;;;;;;39.50;25.17;;;;;;;13.48;100.00;102223.72;4957433;29;20031;-73
2021/10/19 01:29:26;;;;;;;38.17;25.30;;;;;;;13.36;100.00;102223.78;4959545;28;20027;-74
2021/10/19 01:32:12;;;;;;;37.75;25.23;;;;;;;13.58;100.00;102220.13;4959241;28;20038;-73
2021/10/19 01:34:58;;;;;;;34.10;23.40;;;;;;;13.50;100.00;102221.94;4959069;28;20062;-73
2021/10/19 01:37:44;;;;;;;33.35;22.88;;;;;;;13.74;100.00;102217.41;4957944;28;20027;-73
2021/10/19 01:40:30;;;;;;;31.65;22.98;;;;;;;13.56;100.00;102217.53;4944265;29;20035;-73
2021/10/19 01:43:18;;;;;;;35.67;23.38;;;;;;;13.62;100.00;102219.25;4959025;28;20112;-73
2021/10/19 01:46:04;;;;;;;34.70;23.67;;;;;;;13.59;100.00;102227.19;4944609;28;20024;-72
2021/10/19 01:48:50;;;;;;;34.15;23.58;;;;;;;13.63;100.00;102232.41;4958637;28;20027;-73
2021/10/19 01:51:35;;;;;;;35.90;25.00;;;;;;;13.81;100.00;102234.06;4958503;28;20371;-73
2021/10/19 01:54:21;;;;;;;37.45;25.00;;;;;;;13.74;100.00;102234.97;4958772;28;20031;-73
2021/10/19 01:57:07;;;;;;;36.72;24.20;;;;;;;13.57;100.00;102235.09;4956776;29;20035;-73
2021/10/19 01:59:53;;;;;;;36.45;25.17;;;;;;;13.76;100.00;102241.13;4957315;29;20069;-73
2021/10/19 02:02:40;;;;;;;35.38;24.95;;;;;;;13.87;100.00;102240.16;4956851;29;20452;-73
2021/10/19 02:05:25;;;;;;;36.05;24.00;;;;;;;13.98;100.00;102240.06;4945011;28;20038;-73
2021/10/19 02:08:11;;;;;;;36.58;24.60;;;;;;;13.97;100.00;102239.22;4957445;29;20031;-72
2021/10/19 02:10:57;;;;;;;36.40;25.98;;;;;;;13.87;100.00;102241.94;4958023;28;20468;-73
2021/10/19 02:13:43;;;;;;;36.28;25.17;;;;;;;13.85;100.00;102241.06;4958529;28;20408;-72
2021/10/19 02:16:28;;;;;;;36.97;25.77;;;;;;;13.44;100.00;102236.03;4958265;28;20034;-73
2021/10/19 02:19:14;;;;;;;40.78;27.00;;;;;;;13.72;100.00;102242.91;4958478;28;20031;-73
2021/10/19 02:22:00;;;;;;;39.97;24.88;;;;;;;13.86;100.00;102240.16;4957944;28;20043;-73
2021/10/19 02:24:45;;;;;;;34.65;24.45;;;;;;;13.69;100.00;102240.28;4957773;28;20031;-73
2021/10/19 02:27:31;;;;;;;35.60;24.88;;;;;;;13.51;100.00;102236.88;4957436;28;20035;-72
2021/10/19 02:30:18;;;;;;;36.08;24.83;;;;;;;13.05;100.00;102245.84;4957845;28;20023;-72
2021/10/19 02:33:04;;;;;;;35.55;24.95;;;;;;;13.47;100.00;102248.31;4957399;28;20035;-73
2021/10/19 02:35:50;;;;;;;33.13;23.95;;;;;;;13.48;100.00;102252.69;4957829;28;20445;-72
2021/10/19 02:38:35;;;;;;;36.95;25.33;;;;;;;13.49;100.00;102244.78;4957930;28;20113;-72
2021/10/19 02:41:21;;;;;;;35.60;25.25;;;;;;;13.05;100.00;102259.88;4958571;28;20023;-72
2021/10/19 02:44:07;;;;;;;36.15;24.77;;;;;;;13.20;100.00;102262.47;4943494;28;20034;-72
2021/10/19 02:46:52;;;;;;;35.33;24.73;;;;;;;13.13;100.00;102266.00;4943855;28;20035;-72
2021/10/19 02:49:38;;;;;;;33.42;23.80;;;;;;;13.17;100.00;102272.13;4957700;28;20035;-73
2021/10/19 02:52:24;;;;;;;33.60;24.40;;;;;;;12.54;100.00;102280.97;4956986;28;20027;-72
2021/10/19 02:55:16;;;;;;;36.90;25.40;;;;;;;13.07;100.00;102281.78;4957176;28;20037;-73
2021/10/19 02:58:02;;;;;;;34.13;24.70;;;;;;;13.05;100.00;102272.16;4957881;28;20349;-72
2021/10/19 03:00:48;;;;;;;35.15;25.27;;;;;;;13.20;100.00;102288.78;4957634;28;20114;-72
2021/10/19 03:03:34;;;;;;;31.65;23.73;;;;;;;13.43;100.00;102289.56;4956978;28;20176;-74
2021/10/19 03:06:19;;;;;;;33.95;25.17;;;;;;;13.56;100.00;102290.41;4956697;28;20031;-72
2021/10/19 03:09:05;;;;;;;35.38;25.15;;;;;;;13.36;100.00;102287.88;4957295;28;20087;-73
2021/10/19 03:11:51;;;;;;;35.70;25.63;;;;;;;13.63;100.00;102289.50;4955461;29;20023;-72
2021/10/19 03:14:36;;;;;;;34.35;25.92;;;;;;;13.76;100.00;102294.69;4956376;28;20027;-73
2021/10/19 03:17:22;;;;;;;39.75;27.85;;;;;;;13.54;100.00;102286.88;4956386;28;20058;-72
2021/10/19 03:20:08;;;;;;;38.17;26.50;;;;;;;13.81;100.00;102294.66;4955850;29;20027;-73
2021/10/19 03:22:54;;;;;;;37.70;26.50;;;;;;;13.70;100.00;102294.72;4958067;28;20027;-73
2021/10/19 03:25:40;;;;;;;37.55;27.10;;;;;;;13.74;100.00;102298.19;4956653;28;20069;-73
2021/10/19 03:28:25;;;;;;;37.45;26.95;;;;;;;13.49;100.00;102284.28;4959211;29;20029;-74
2021/10/19 03:31:12;;;;;;;35.53;26.13;;;;;;;13.78;100.00;102302.56;4960087;28;20129;-73
2021/10/19 03:33:57;;;;;;;35.63;26.00;;;;;;;13.58;100.00;102297.41;4961346;28;20035;-73
2021/10/19 03:36:44;;;;;;;36.03;27.05;;;;;;;13.42;100.00;102300.13;4961466;28;20101;-73
2021/10/19 03:39:29;;;;;;;35.50;27.10;;;;;;;13.33;100.00;102290.50;4960565;28;20042;-72
2021/10/19 03:42:15;;;;;;;37.22;28.02;;;;;;;13.83;100.00;102298.16;4960514;28;20102;-73
2021/10/19 03:45:01;;;;;;;39.45;29.05;;;;;;;13.50;100.00;102291.28;4960415;28;20063;-73
2021/10/19 03:47:47;;;;;;;40.03;27.67;;;;;;;13.91;100.00;102294.59;4947758;28;20067;-73
2021/10/19 03:50:33;;;;;;;40.33;29.48;;;;;;;13.66;100.00;102294.72;4961032;28;20372;-72
2021/10/19 03:53:19;;;;;;;44.60;31.20;;;;;;;13.50;100.00;102300.94;4961178;28;20475;-73
2021/10/19 03:56:05;;;;;;;39.60;28.50;;;;;;;13.69;100.00;102303.50;4960161;28;20027;-73
2021/10/19 03:58:51;;;;;;;39.80;29.20;;;;;;;13.28;100.00;102304.56;4961401;28;20462;-72
2021/10/19 04:01:37;;;;;;;41.67;29.40;;;;;;;13.49;100.00;102309.72;4960110;28;20127;-73
2021/10/19 04:04:23;;;;;;;45.78;31.05;;;;;;;13.46;100.00;102315.00;4960493;28;20106;-73
2021/10/19 04:07:11;;;;;;;41.10;30.52;;;;;;;13.51;100.00;102314.09;4945943;28;20043;-73
2021/10/19 04:09:57;;;;;;;40.83;29.52;;;;;;;13.49;100.00;102325.53;4960992;28;20090;-73
2021/10/19 04:12:43;;;;;;;45.80;32.42;;;;;;;13.71;100.00;102330.69;4959911;29;20031;-73
2021/10/19 04:15:29;;;;;;;42.08;31.17;;;;;;;13.80;100.00;102329.78;4960305;28;20042;-73
2021/10/19 04:18:14;;;;;;;44.47;31.95;;;;;;;13.89;100.00;102335.00;4960648;28;20436;-73
2021/10/19 04:21:01;;;;;;;51.05;33.72;;;;;;;13.66;100.00;102334.22;4960146;28;20072;-73
2021/10/19 04:23:47;;;;;;;46.17;34.22;;;;;;;13.85;100.00;102330.63;4960739;28;20333;-73
2021/10/19 04:26:32;;;;;;;55.72;34.65;;;;;;;13.79;100.00;102326.28;4944998;29;20027;-73
2021/10/19 04:29:18;;;;;;;49.15;33.33;;;;;;;13.72;100.00;102329.84;4945556;29;20027;-74
2021/10/19 04:32:04;;;;;;;51.50;35.47;;;;;;;13.50;100.00;102337.81;4945591;28;20027;-74
2021/10/19 04:34:50;;;;;;;60.88;38.25;;;;;;;13.62;100.00;102341.28;4945787;29;20035;-73
2021/10/19 04:37:36;;;;;;;63.08;39.70;;;;;;;13.48;100.00;102336.94;4944798;28;20074;-73
2021/10/19 04:40:22;;;;;;;55.90;37.22;;;;;;;13.53;100.00;102335.16;4959669;28;20114;-73
2021/10/19 04:43:08;;;;;;;53.25;36.17;;;;;;;13.54;100.00;102343.06;4959670;28;20027;-73
2021/10/19 04:45:53;;;;;;;49.92;35.22;;;;;;;13.69;100.00;102353.56;4959508;28;20098;-72
2021/10/19 04:48:39;;;;;;;61.80;38.60;;;;;;;13.39;100.00;102352.78;4945588;28;20118;-74
2021/10/19 04:51:25;;;;;;;53.88;38.08;;;;;;;13.61;100.00;102352.72;4959653;28;20404;-74
2021/10/19 04:54:11;;;;;;;58.47;38.70;;;;;;;13.67;100.00;102355.31;4960121;28;20031;-72
2021/10/19 04:56:56;;;;;;;70.22;44.60;;;;;;;13.75;100.00;102357.94;4957663;28;20467;-73
2021/10/19 04:59:45;;;;;;;70.43;44.42;;;;;;;13.75;100.00;102357.94;4960055;28;20038;-74
2021/10/19 05:02:31;;;;;;;68.55;42.95;;;;;;;13.51;100.00;102361.50;4936560;28;20404;-74
2021/10/19 05:05:18;;;;;;;66.50;42.63;;;;;;;13.80;100.00;102372.84;4950434;28;20051;-72
2021/10/19 05:08:04;;;;;;;61.15;39.38;;;;;;;13.75;100.00;102374.59;4952371;28;20023;-74
2021/10/19 05:10:50;;;;;;;67.65;41.28;;;;;;;13.84;100.00;102381.59;4969945;28;20733;-73
2021/10/19 05:13:37;;;;;;;56.53;37.00;;;;;;;13.92;100.00;102383.31;4952771;28;20543;-74
2021/10/19 05:16:22;;;;;;;64.07;37.10;;;;;;;14.17;100.00;102390.22;4936777;28;20853;-73
2021/10/19 05:19:09;;;;;;;67.93;42.63;;;;;;;14.09;100.00;102388.47;4966225;28;20330;-73
2021/10/19 05:21:55;;;;;;;65.72;39.88;;;;;;;14.01;100.00;102393.81;4953169;28;20034;-73
2021/10/19 05:24:40;;;;;;;67.72;42.03;;;;;;;13.73;100.00;102396.56;4948559;28;20370;-73
2021/10/19 05:27:27;;;;;;;72.88;43.85;;;;;;;13.38;100.00;102404.56;4937729;28;20035;-75
2021/10/19 05:30:13;;;;;;;71.57;43.50;;;;;;;13.78;100.00;102400.94;4950274;28;20035;-73
2021/10/19 05:32:59;;;;;;;68.22;45.03;;;;;;;13.17;100.00;102398.44;4949432;28;20459;-72
2021/10/19 05:35:45;;;;;;;84.28;50.83;;;;;;;13.46;100.00;102405.41;4967362;28;20034;-71
2021/10/19 05:38:33;;;;;;;76.13;48.38;;;;;;;13.57;100.00;102408.91;4955696;28;20093;-72
2021/10/19 05:41:19;;;;;;;76.30;48.58;;;;;;;14.04;100.00;102406.09;4957025;28;20102;-71
2021/10/19 05:44:07;;;;;;;74.05;46.42;;;;;;;14.32;100.00;102405.09;4947849;28;20027;-73
2021/10/19 05:46:53;;;;;;;66.95;44.58;;;;;;;14.29;100.00;102407.75;4964952;28;20043;-73
2021/10/19 05:49:38;;;;;;;69.68;46.40;;;;;;;14.42;100.00;102409.41;4950239;28;20114;-72
2021/10/19 05:52:24;;;;;;;71.45;44.85;;;;;;;14.60;100.00;102409.31;4967715;28;20742;-73
2021/10/19 05:55:11;;;;;;;68.75;47.08;;;;;;;14.62;100.00;102410.16;4948880;28;20039;-72
2021/10/19 05:57:56;;;;;;;66.65;46.22;;;;;;;14.84;100.00;102419.69;4963086;28;20081;-72
2021/10/19 06:00:42;;;;;;;73.82;46.63;;;;;;;14.89;100.00;102415.22;4954264;28;20038;-72
2021/10/19 06:03:28;;;;;;;67.18;44.20;;;;;;;14.97;100.00;102423.97;4952037;28;20039;-73
2021/10/19 06:06:15;;;;;;;70.28;45.33;;;;;;;14.88;100.00;102418.75;4940847;28;20031;-73
2021/10/19 06:09:00;;;;;;;67.15;43.30;;;;;;;15.19;100.00;102416.72;4936314;28;20062;-73
2021/10/19 06:11:46;;;;;;;61.00;41.38;;;;;;;15.31;100.00;102428.03;4952424;28;20117;-73
2021/10/19 06:14:32;;;;;;;56.03;38.25;;;;;;;15.03;100.00;102426.53;4947733;28;20066;-72
2021/10/19 06:17:18;;;;;;;52.63;35.20;;;;;;;15.30;100.00;102434.22;4957055;28;20079;-72
2021/10/19 06:20:04;;;;;;;52.92;32.72;;;;;;;15.12;100.00;102438.78;4948752;28;20039;-73
2021/10/19 06:22:50;;;;;;;47.08;31.90;;;;;;;15.41;100.00;102439.41;4933439;28;20035;-72
2021/10/19 06:25:36;;;;;;;45.35;30.30;;;;;;;15.36;100.00;102442.13;4937585;28;20042;-72
2021/10/19 06:28:22;;;;;;;43.70;29.42;;;;;;;15.02;100.00;102451.19;4962218;28;20035;-75
2021/10/19 06:31:08;;;;;;;48.40;29.73;;;;;;;15.19;100.00;102451.06;4962327;28;20026;-77
2021/10/19 06:33:54;;;;;;;44.83;29.65;;;;;;;14.98;100.00;102451.25;4956384;28;20031;-77
2021/10/19 06:36:40;;;;;;;50.38;31.63;;;;;;;14.79;100.00;102448.72;4952435;28;20042;-73
2021/10/19 06:39:25;;;;;;;46.33;29.67;;;;;;;14.95;100.00;102449.47;4935810;28;21534;-73
2021/10/19 06:42:11;;;;;;;43.80;30.33;;;;;;;15.08;100.00;102451.16;4949288;28;20385;-72
2021/10/19 06:45:00;;;;;;;44.22;30.58;;;;;;;15.47;100.00;102449.94;4950202;28;20057;-72
2021/10/19 06:47:46;;;;;;;44.13;26.95;;;;;;;15.15;100.00;102455.47;4949537;28;20127;-74
2021/10/19 06:50:32;;;;;;;40.88;26.95;;;;;;;15.10;100.00;102453.78;4948214;28;20023;-72
2021/10/19 06:53:19;;;;;;;35.13;25.77;;;;;;;15.30;100.00;102457.13;4950377;28;20376;-72
2021/10/19 06:56:05;;;;;;;32.92;24.75;;;;;;;15.59;100.00;102461.25;4952526;28;20034;-73
2021/10/19 06:58:51;;;;;;;32.35;25.25;;;;;;;15.82;100.00;102459.25;4954957;28;20613;-73
2021/10/19 07:01:36;;;;;;;34.40;24.98;;;;;;;15.97;100.00;102459.06;4946997;28;20035;-73
2021/10/19 07:04:22;;;;;;;33.67;24.25;;;;;;;15.91;100.00;102459.13;4954594;28;20049;-71
2021/10/19 07:07:08;;;;;;;32.40;23.40;;;;;;;16.20;100.00;102459.63;4952693;28;20027;-73
2021/10/19 07:09:54;;;;;;;33.35;24.30;;;;;;;15.53;100.00;102463.06;4955738;28;20506;-71
2021/10/19 07:12:40;;;;;;;33.83;23.90;;;;;;;15.46;100.00;102474.59;4951830;28;20035;-72
2021/10/19 07:15:33;;;;;;;32.53;21.95;;;;;;;15.75;100.00;102470.75;4953961;28;20050;-75
2021/10/19 07:18:21;;;;;;;32.42;22.27;;;;;;;15.45;100.00;102476.38;4938282;28;20133;-72
2021/10/19 07:21:07;;;;;;;31.90;20.08;;;;;;;15.70;100.00;102479.63;4951549;28;20110;-71
2021/10/19 07:23:53;;;;;;;30.48;22.95;;;;;;;15.62;100.00;102478.81;4944924;28;20045;-72
2021/10/19 07:26:39;;;;;;;27.10;21.33;;;;;;;16.12;100.00;102477.38;4948686;28;20043;-73
2021/10/19 07:29:24;;;;;;;29.25;19.92;;;;;;;16.33;100.00;102486.81;4948221;28;20035;-73
2021/10/19 07:32:10;;;;;;;24.50;19.92;;;;;;;16.64;100.00;102482.91;4940421;28;20452;-73
2021/10/19 07:34:56;;;;;;;22.55;17.80;;;;;;;16.84;100.00;102496.72;4951095;28;20049;-73
2021/10/19 07:37:42;;;;;;;26.08;18.55;;;;;;;16.34;100.00;102496.50;4944692;28;20027;-72
2021/10/19 07:40:28;;;;;;;27.10;19.42;;;;;;;16.37;100.00;102494.72;4952763;28;20644;-73
2021/10/19 07:43:14;;;;;;;29.75;21.73;;;;;;;16.34;100.00;102488.56;4947913;28;20058;-72
2021/10/19 07:46:00;;;;;;;24.15;18.30;;;;;;;16.44;100.00;102501.69;4959159;28;20061;-74
2021/10/19 07:48:46;;;;;;;20.13;15.63;;;;;;;16.64;100.00;102496.13;4942285;28;20034;-73
2021/10/19 07:51:32;;;;;;;26.73;18.70;;;;;;;16.48;100.00;102495.44;4950633;28;20075;-72
2021/10/19 07:54:18;;;;;;;25.73;17.77;;;;;;;16.95;100.00;102506.25;4952807;28;20098;-72
2021/10/19 07:57:04;;;;;;;26.63;19.30;;;;;;;17.10;100.00;102507.78;4950502;28;20094;-72
2021/10/19 07:59:50;;;;;;;25.08;16.38;;;;;;;17.23;100.00;102506.66;4938471;28;20065;-73
2021/10/19 08:02:36;;;;;;;23.00;16.55;;;;;;;16.81;100.00;102497.66;4947677;28;20031;-74
2021/10/19 08:05:22;;;;;;;19.67;15.38;;;;;;;17.43;100.00;102497.53;4946739;28;20830;-74
2021/10/19 08:08:13;;;;;;;18.38;13.40;;;;;;;17.66;100.00;102499.78;4936571;28;20042;-74
2021/10/19 08:10:59;;;;;;;18.15;14.18;;;;;;;18.22;100.00;102489.81;4941488;28;20058;-74
2021/10/19 08:13:45;;;;;;;18.70;14.82;;;;;;;18.24;97.59;102495.06;4944301;28;20035;-74
2021/10/19 08:16:31;;;;;;;19.80;15.25;;;;;;;18.13;100.00;102492.63;4955207;28;20039;-74
2021/10/19 08:19:17;;;;;;;21.40;15.18;;;;;;;17.93;100.00;102493.97;4944524;28;20126;-75
2021/10/19 08:22:02;;;;;;;23.90;16.02;;;;;;;18.16;100.00;102489.03;4939429;28;20448;-73
2021/10/19 08:24:49;;;;;;;21.30;15.27;;;;;;;17.64;100.00;102489.19;4947742;28;20443;-75
2021/10/19 08:27:36;;;;;;;21.17;15.63;;;;;;;17.98;100.00;102481.47;4955397;28;20128;-76
2021/10/19 08:30:23;;;;;;;16.88;13.25;;;;;;;18.44;100.00;102487.59;4959743;28;20043;-77
2021/10/19 08:33:09;;;;;;;19.88;14.65;;;;;;;18.25;100.00;102491.53;4953303;28;20035;-78
2021/10/19 08:35:55;;;;;;;19.25;14.50;;;;;;;18.20;100.00;102486.31;4958823;28;21343;-78
2021/10/19 08:38:41;;;;;;;22.33;14.10;;;;;;;18.71;100.00;102487.88;4957597;28;20023;-78
2021/10/19 08:41:30;;;;;;;19.63;14.98;;;;;;;18.33;100.00;102482.47;4960168;28;20035;-77
2021/10/19 08:44:16;;;;;;;19.00;14.35;;;;;;;18.22;100.00;102484.50;4936153;28;20070;-77
2021/10/19 08:47:02;;;;;;;19.38;14.02;;;;;;;18.12;100.00;102474.97;4954666;28;20031;-78
2021/10/19 08:49:48;;;;;;;19.17;13.93;;;;;;;18.22;100.00;102480.97;4957163;28;20129;-78
2021/10/19 08:52:34;;;;;;;20.23;14.65;;;;;;;17.58;100.00;102483.13;4958150;28;20054;-77
2021/10/19 08:55:20;;;;;;;18.42;13.73;;;;;;;18.05;100.00;102483.09;4963531;28;20055;-77
2021/10/19 08:58:13;;;;;;;15.00;13.02;;;;;;;18.09;100.00;102475.03;4943715;28;20046;-77
2021/10/19 09:01:06;;;;;;;16.65;12.23;;;;;;;18.04;100.00;102468.06;4955309;28;20102;-76
2021/10/19 09:03:52;;;;;;;14.93;11.98;;;;;;;17.97;100.00;102469.13;4936978;28;20406;-77
2021/10/19 09:06:40;;;;;;;20.55;13.00;;;;;;;17.81;100.00;102475.63;4953498;28;20031;-76
2021/10/19 09:09:26;;;;;;;16.45;12.50;;;;;;;17.96;100.00;102472.66;4951192;28;20098;-76
2021/10/19 09:12:20;;;;;;;18.10;12.10;;;;;;;18.30;100.00;102464.00;4953791;28;20023;-76
2021/10/19 09:15:08;;;;;;;17.73;12.27;;;;;;;17.99;100.00;102467.28;4942048;28;20038;-76
2021/10/19 09:17:58;;;;;;;17.45;11.98;;;;;;;18.14;100.00;102469.66;4954028;28;20114;-77
2021/10/19 09:20:48;;;;;;;14.63;12.15;;;;;;;17.99;100.00;102467.28;4951192;28;20143;-76
2021/10/19 09:23:34;;;;;;;15.93;11.82;;;;;;;18.12;100.00;102466.13;4942859;28;20135;-76
2021/10/19 09:26:30;;;;;;;16.75;11.07;;;;;;;18.67;99.13;102464.94;4956779;28;20054;-75
2021/10/19 09:29:17;;;;;;;15.18;11.98;;;;;;;18.20;99.19;102464.19;4957743;28;20043;-76
2021/10/19 09:32:06;;;;;;;14.32;11.88;;;;;;;18.09;100.00;102461.78;4958548;28;20026;-77
2021/10/19 09:34:52;;;;;;;15.00;12.02;;;;;;;18.31;100.00;102456.88;4945770;28;20032;-76
2021/10/19 09:37:38;;;;;;;14.52;10.48;;;;;;;18.16;95.38;102454.53;4954328;28;20030;-75
2021/10/19 09:40:39;;;;;;;14.27;10.88;;;;;;;18.23;95.26;102449.09;4959949;28;20108;-75
2021/10/19 09:43:29;;;;;;;14.45;9.98;;;;;;;18.43;92.17;102446.03;4945821;28;20054;-76
2021/10/19 09:46:15;;;;;;;17.40;11.63;;;;;;;18.02;99.95;102448.69;4945827;28;20308;-75
2021/10/19 09:49:02;;;;;;;16.73;11.55;;;;;;;17.89;100.00;102453.34;4956443;28;20039;-75
2021/10/19 09:51:48;;;;;;;16.60;11.88;;;;;;;17.97;100.00;102440.78;4960733;28;20035;-73
2021/10/19 09:54:35;;;;;;;13.25;11.48;;;;;;;18.33;97.32;102444.47;4952564;28;20035;-76
2021/10/19 09:57:21;;;;;;;15.23;11.90;;;;;;;17.77;100.00;102439.47;4949112;28;20369;-74
2021/10/19 10:00:10;;;;;;;15.45;11.57;;;;;;;18.00;100.00;102437.19;4952391;28;20034;-73
2021/10/19 10:02:58;;;;;;;17.08;11.63;;;;;;;18.64;96.06;102434.91;4947248;28;20050;-75
2021/10/19 10:05:44;;;;;;;16.58;12.52;;;;;;;18.19;100.00;102434.16;4935854;28;20062;-75
2021/10/19 10:08:31;;;;;;;17.38;11.73;;;;;;;18.13;98.42;102434.25;4956034;28;20049;-75
2021/10/19 10:11:17;;;;;;;14.43;11.90;;;;;;;18.27;99.08;102426.91;4949396;28;20031;-76
2021/10/19 10:14:03;;;;;;;19.73;13.07;;;;;;;17.94;100.00;102424.09;4933459;28;20031;-75
2021/10/19 10:16:49;;;;;;;18.13;12.70;;;;;;;18.04;100.00;102425.63;4953762;28;20142;-72
2021/10/19 10:19:36;;;;;;;16.25;12.57;;;;;;;18.75;97.02;102424.91;4937209;28;20107;-73
2021/10/19 10:22:28;;;;;;;18.17;12.30;;;;;;;18.77;97.55;102420.47;4955971;28;20519;-72
2021/10/19 10:25:16;;;;;;;16.02;12.48;;;;;;;18.53;96.03;102416.59;4957143;28;20038;-73
2021/10/19 10:28:13;;;;;;;15.82;12.32;;;;;;;17.75;98.62;102412.97;4952692;28;20515;-72
2021/10/19 10:31:04;;;;;;;18.75;13.13;;;;;;;17.64;100.00;102417.63;4953729;28;20527;-74
2021/10/19 10:34:01;;;;;;;21.20;13.27;;;;;;;18.07;100.00;102418.50;4942638;28;20030;-76
2021/10/19 10:36:50;;;;;;;17.88;12.30;;;;;;;18.39;100.00;102410.72;4951685;28;20031;-75
2021/10/19 10:39:36;;;;;;;18.55;12.02;;;;;;;18.46;96.04;102407.03;4955136;28;20062;-76
2021/10/19 10:42:22;;;;;;;20.70;11.85;;;;;;;18.36;96.05;102408.16;4953530;28;20113;-77
2021/10/19 10:45:19;;;;;;;19.27;12.43;;;;;;;17.81;97.19;102410.19;4944440;28;20022;-73
2021/10/19 10:48:06;;;;;;;15.77;12.25;;;;;;;18.40;93.31;102407.16;4960840;28;20037;-77
2021/10/19 10:50:52;;;;;;;15.57;11.68;;;;;;;18.40;95.60;102403.63;4956240;28;20550;-72
2021/10/19 10:53:41;;;;;;;13.93;11.25;;;;;;;18.44;97.10;102400.00;4947016;28;20027;-73
2021/10/19 10:56:27;;;;;;;14.23;11.23;;;;;;;18.22;93.12;102406.69;4952018;28;20034;-72
2021/10/19 10:59:26;;;;;;;17.27;11.70;;;;;;;17.95;93.95;102400.19;4950276;28;20035;-72
2021/10/19 11:02:12;;;;;;;15.55;11.95;;;;;;;18.20;94.75;102401.41;4948229;28;20464;-73
2021/10/19 11:04:59;;;;;;;14.70;11.82;;;;;;;18.26;92.86;102392.44;4956180;28;20862;-72
2021/10/19 11:07:45;;;;;;;17.98;11.77;;;;;;;18.76;89.31;102392.13;4948287;28;20151;-72
2021/10/19 11:10:31;;;;;;;13.40;11.40;;;;;;;19.30;87.26;102382.81;4954877;28;20054;-73
2021/10/19 11:13:17;;;;;;;21.98;15.02;;;;;;;19.92;83.89;102381.88;4952695;28;20039;-72
2021/10/19 11:16:03;;;;;;;18.70;13.27;;;;;;;20.30;81.89;102378.97;4952675;28;20047;-72
2021/10/19 11:18:53;;;;;;;78.20;54.72;;;;;;;19.86;79.29;102384.75;4960453;28;20043;-75
2021/10/19 11:21:39;;;;;;;15.65;11.70;;;;;;;19.98;77.01;102375.50;4955672;28;20034;-78
2021/10/19 11:24:29;;;;;;;14.93;11.15;;;;;;;20.60;77.10;102374.44;4955237;28;20515;-72
2021/10/19 11:27:17;;;;;;;14.13;10.98;;;;;;;20.08;76.40;102380.50;4961664;28;20093;-72
2021/10/19 11:30:06;;;;;;;12.80;9.57;;;;;;;19.36;77.18;102371.97;4942464;28;20046;-70
2021/10/19 11:32:52;;;;;;;11.57;9.75;;;;;;;20.42;75.92;102375.06;4950517;28;20088;-72
2021/10/19 11:35:38;;;;;;;13.82;10.13;;;;;;;19.44;79.78;102372.66;4937234;28;20356;-72
2021/10/19 11:38:27;;;;;;;14.52;10.20;;;;;;;20.37;75.46;102375.19;4956468;28;20038;-72
2021/10/19 11:41:15;;;;;;;13.05;10.25;;;;;;;19.64;76.65;102374.75;4953506;28;20093;-75
2021/10/19 11:44:10;;;;;;;12.27;10.27;;;;;;;20.30;75.57;102370.13;4955665;28;20034;-73
2021/10/19 11:46:57;;;;;;;15.38;10.18;;;;;;;20.42;74.81;102365.28;4945508;28;20070;-73
2021/10/19 11:49:43;;;;;;;14.50;10.35;;;;;;;20.42;73.50;102367.06;4954367;28;20122;-74
2021/10/19 11:52:29;;;;;;;11.32;9.40;;;;;;;20.28;72.51;102356.84;4950102;28;20031;-71
2021/10/19 11:55:16;;;;;;;10.75;9.20;;;;;;;19.91;74.52;102356.19;4930872;28;20041;-71
2021/10/19 11:58:04;;;;;;;11.93;9.68;;;;;;;20.48;72.93;102353.53;4953512;28;20039;-71
2021/10/19 12:00:52;;;;;;;13.05;9.90;;;;;;;19.88;75.03;102347.41;4959595;28;20043;-70
2021/10/19 12:03:38;;;;;;;11.43;9.98;;;;;;;19.64;77.15;102348.16;4939087;28;20096;-71
2021/10/19 12:06:29;;;;;;;12.13;9.30;;;;;;;19.73;75.14;102346.09;4956619;28;20327;-70
2021/10/19 12:09:21;;;;;;;12.25;10.32;;;;;;;20.34;72.73;102340.69;4952709;28;20055;-71
2021/10/19 12:12:07;;;;;;;16.52;11.30;;;;;;;20.65;71.49;102345.88;4956751;28;20542;-71
2021/10/19 12:14:55;;;;;;;21.10;10.30;;;;;;;19.78;73.47;102336.22;4959960;28;20475;-71
2021/10/19 12:17:54;;;;;;;13.00;9.73;;;;;;;19.57;78.62;102327.97;4962199;28;20031;-71
2021/10/19 12:20:40;;;;;;;14.32;10.10;;;;;;;19.57;76.98;102331.50;4954499;28;20046;-72
2021/10/19 12:23:26;;;;;;;14.05;9.15;;;;;;;19.41;77.84;102332.00;4943058;28;20030;-72
2021/10/19 12:26:12;;;;;;;11.05;9.50;;;;;;;19.83;74.89;102336.06;4955446;28;20027;-71
2021/10/19 12:29:04;;;;;;;12.65;9.85;;;;;;;19.38;78.28;102332.97;4955192;28;20046;-72
2021/10/19 12:31:49;;;;;;;14.02;9.32;;;;;;;19.52;77.36;102329.91;4955553;28;20425;-72